Leon, Oklahoma
Current Conditions -  °F | °C
As of 6:35 AM on Friday 24 Oct 2014 (Local Time) from KGLE Reporting Station
Scattered Clouds Scattered Clouds  
Wind Chill: 57°   Ceiling: Unl
Heat Index: 57°   Visibility: 10mi
Dew Point: 55°   Wind: 5mph
Humidity: 94%   Direction: 150°SSE
Pressure: 30.14"   Gusts: NA
Location:  33.88°N, 97.43°W
Report Text: KGLE 241135Z AUTO 15004KT 10SM SCT050 14/13 A3014 RMK AO2 T01380128
Loading
Personal Weather Stations






























Interactive Weather Map
Tropical Storm Tracking
New forecast layout! Learn more

10-Day Weather Forecast

Advertisements
Track Severe Weather on mobile